sensor_id;sensor_type;location;lat;lon;timestamp;P1;durP1;ratioP1;P2;durP2;ratioP2
1010;SDS011;494;48.744;10.106;2022-09-16T00:01:24;21.73;;;14.50;;
1010;SDS011;494;48.744;10.106;2022-09-16T00:03:53;20.40;;;12.63;;
1010;SDS011;494;48.744;10.106;2022-09-16T00:06:23;17.53;;;10.90;;
1010;SDS011;494;48.744;10.106;2022-09-16T00:08:56;19.10;;;11.53;;
1010;SDS011;494;48.744;10.106;2022-09-16T00:11:27;19.20;;;13.37;;
1010;SDS011;494;48.744;10.106;2022-09-16T00:13:59;18.20;;;15.20;;
1010;SDS011;494;48.744;10.106;2022-09-16T00:16:28;21.43;;;12.60;;
1010;SDS011;494;48.744;10.106;2022-09-16T00:18:58;19.17;;;14.60;;
1010;SDS011;494;48.744;10.106;2022-09-16T00:21:28;20.93;;;14.53;;
1010;SDS011;494;48.744;10.106;2022-09-16T00:23:59;21.40;;;14.90;;
1010;SDS011;494;48.744;10.106;2022-09-16T00:26:28;19.53;;;14.23;;
1010;SDS011;494;48.744;10.106;2022-09-16T00:28:56;19.20;;;14.77;;
1010;SDS011;494;48.744;10.106;2022-09-16T00:31:25;22.63;;;14.60;;
1010;SDS011;494;48.744;10.106;2022-09-16T00:33:53;22.10;;;15.57;;
1010;SDS011;494;48.744;10.106;2022-09-16T00:36:22;18.23;;;12.80;;
1010;SDS011;494;48.744;10.106;2022-09-16T00:38:50;19.47;;;14.20;;
1010;SDS011;494;48.744;10.106;2022-09-16T00:41:22;20.60;;;13.10;;
1010;SDS011;494;48.744;10.106;2022-09-16T00:43:55;17.93;;;12.97;;
1010;SDS011;494;48.744;10.106;2022-09-16T00:46:29;18.37;;;12.43;;
1010;SDS011;494;48.744;10.106;2022-09-16T00:49:05;18.33;;;12.50;;
1010;SDS011;494;48.744;10.106;2022-09-16T00:51:41;19.00;;;12.27;;
1010;SDS011;494;48.744;10.106;2022-09-16T00:54:13;19.83;;;14.33;;
1010;SDS011;494;48.744;10.106;2022-09-16T00:56:48;19.50;;;13.20;;
1010;SDS011;494;48.744;10.106;2022-09-16T00:59:21;16.83;;;12.60;;
1010;SDS011;494;48.744;10.106;2022-09-16T01:01:54;19.00;;;14.07;;
1010;SDS011;494;48.744;10.106;2022-09-16T01:04:27;17.37;;;13.13;;
1010;SDS011;494;48.744;10.106;2022-09-16T01:07:01;20.50;;;12.20;;
1010;SDS011;494;48.744;10.106;2022-09-16T01:09:30;18.33;;;12.00;;
1010;SDS011;494;48.744;10.106;2022-09-16T01:12:00;21.63;;;13.40;;
1010;SDS011;494;48.744;10.106;2022-09-16T01:14:29;19.10;;;13.50;;
1010;SDS011;494;48.744;10.106;2022-09-16T01:17:16;17.63;;;13.40;;
1010;SDS011;494;48.744;10.106;2022-09-16T01:20:01;20.47;;;13.07;;
1010;SDS011;494;48.744;10.106;2022-09-16T01:33:15;18.33;;;12.60;;
1010;SDS011;494;48.744;10.106;2022-09-16T01:36:07;23.43;;;11.97;;
1010;SDS011;494;48.744;10.106;2022-09-16T01:38:57;16.53;;;10.90;;
1010;SDS011;494;48.744;10.106;2022-09-16T01:41:42;17.50;;;12.27;;
1010;SDS011;494;48.744;10.106;2022-09-16T01:44:27;22.07;;;11.30;;
1010;SDS011;494;48.744;10.106;2022-09-16T01:47:14;16.60;;;11.50;;
1010;SDS011;494;48.744;10.106;2022-09-16T01:49:52;19.43;;;12.07;;
1010;SDS011;494;48.744;10.106;2022-09-16T01:52:33;16.90;;;11.20;;
1010;SDS011;494;48.744;10.106;2022-09-16T01:55:13;18.63;;;11.83;;
1010;SDS011;494;48.744;10.106;2022-09-16T01:57:52;22.27;;;12.70;;
1010;SDS011;494;48.744;10.106;2022-09-16T02:00:26;17.87;;;12.27;;
1010;SDS011;494;48.744;10.106;2022-09-16T02:02:57;20.30;;;12.60;;
1010;SDS011;494;48.744;10.106;2022-09-16T02:05:32;18.63;;;12.50;;
1010;SDS011;494;48.744;10.106;2022-09-16T02:08:06;16.87;;;12.10;;
1010;SDS011;494;48.744;10.106;2022-09-16T02:10:41;18.43;;;12.20;;
1010;SDS011;494;48.744;10.106;2022-09-16T02:13:16;17.70;;;11.80;;
1010;SDS011;494;48.744;10.106;2022-09-16T02:15:49;18.83;;;11.97;;
1010;SDS011;494;48.744;10.106;2022-09-16T02:18:22;18.67;;;11.30;;
1010;SDS011;494;48.744;10.106;2022-09-16T02:20:56;18.63;;;12.17;;
1010;SDS011;494;48.744;10.106;2022-09-16T02:23:30;17.20;;;10.70;;
1010;SDS011;494;48.744;10.106;2022-09-16T02:26:05;17.30;;;12.17;;
1010;SDS011;494;48.744;10.106;2022-09-16T02:28:41;19.20;;;9.80;;
1010;SDS011;494;48.744;10.106;2022-09-16T02:31:14;17.90;;;10.00;;
1010;SDS011;494;48.744;10.106;2022-09-16T02:33:52;20.00;;;10.13;;
1010;SDS011;494;48.744;10.106;2022-09-16T02:36:26;16.90;;;9.60;;
1010;SDS011;494;48.744;10.106;2022-09-16T02:38:58;19.40;;;9.17;;
1010;SDS011;494;48.744;10.106;2022-09-16T02:41:33;17.77;;;9.10;;
1010;SDS011;494;48.744;10.106;2022-09-16T02:44:03;17.10;;;8.70;;
1010;SDS011;494;48.744;10.106;2022-09-16T02:46:34;18.63;;;9.70;;
1010;SDS011;494;48.744;10.106;2022-09-16T02:49:15;19.37;;;8.80;;
1010;SDS011;494;48.744;10.106;2022-09-16T02:51:56;20.43;;;9.70;;
1010;SDS011;494;48.744;10.106;2022-09-16T02:54:33;20.37;;;10.30;;
1010;SDS011;494;48.744;10.106;2022-09-16T02:57:11;17.77;;;9.80;;
1010;SDS011;494;48.744;10.106;2022-09-16T02:59:41;20.10;;;9.97;;
1010;SDS011;494;48.744;10.106;2022-09-16T03:02:11;16.10;;;8.50;;
1010;SDS011;494;48.744;10.106;2022-09-16T03:04:41;17.70;;;8.90;;
1010;SDS011;494;48.744;10.106;2022-09-16T03:07:10;15.27;;;9.00;;
1010;SDS011;494;48.744;10.106;2022-09-16T03:09:40;17.50;;;9.20;;
1010;SDS011;494;48.744;10.106;2022-09-16T03:12:25;20.93;;;9.90;;
1010;SDS011;494;48.744;10.106;2022-09-16T03:15:18;17.87;;;9.27;;
1010;SDS011;494;48.744;10.106;2022-09-16T03:18:21;17.00;;;9.37;;
1010;SDS011;494;48.744;10.106;2022-09-16T03:21:28;24.20;;;10.07;;
1010;SDS011;494;48.744;10.106;2022-09-16T03:24:07;20.83;;;10.50;;
1010;SDS011;494;48.744;10.106;2022-09-16T03:26:44;19.63;;;10.07;;
1010;SDS011;494;48.744;10.106;2022-09-16T03:29:24;26.53;;;9.27;;
1010;SDS011;494;48.744;10.106;2022-09-16T03:32:01;17.80;;;9.97;;
1010;SDS011;494;48.744;10.106;2022-09-16T03:34:43;18.87;;;10.00;;
1010;SDS011;494;48.744;10.106;2022-09-16T03:37:19;20.30;;;10.77;;
1010;SDS011;494;48.744;10.106;2022-09-16T03:39:50;15.93;;;9.47;;
1010;SDS011;494;48.744;10.106;2022-09-16T03:42:23;18.30;;;10.40;;
1010;SDS011;494;48.744;10.106;2022-09-16T03:44:52;18.30;;;10.80;;
1010;SDS011;494;48.744;10.106;2022-09-16T03:47:21;16.80;;;9.90;;
1010;SDS011;494;48.744;10.106;2022-09-16T03:49:49;17.80;;;11.10;;
1010;SDS011;494;48.744;10.106;2022-09-16T03:52:19;20.23;;;11.20;;
1010;SDS011;494;48.744;10.106;2022-09-16T03:54:48;18.50;;;11.60;;
1010;SDS011;494;48.744;10.106;2022-09-16T03:57:17;20.60;;;11.53;;
1010;SDS011;494;48.744;10.106;2022-09-16T03:59:45;22.80;;;12.43;;
1010;SDS011;494;48.744;10.106;2022-09-16T04:02:14;18.03;;;10.93;;
1010;SDS011;494;48.744;10.106;2022-09-16T04:04:42;17.37;;;10.37;;
1010;SDS011;494;48.744;10.106;2022-09-16T04:07:11;17.63;;;10.50;;
1010;SDS011;494;48.744;10.106;2022-09-16T04:09:40;25.23;;;11.60;;
1010;SDS011;494;48.744;10.106;2022-09-16T04:12:09;23.57;;;11.80;;
1010;SDS011;494;48.744;10.106;2022-09-16T04:14:37;18.87;;;11.77;;
1010;SDS011;494;48.744;10.106;2022-09-16T04:17:06;22.13;;;11.53;;
1010;SDS011;494;48.744;10.106;2022-09-16T04:19:35;21.87;;;12.20;;
1010;SDS011;494;48.744;10.106;2022-09-16T04:22:03;22.10;;;11.83;;
1010;SDS011;494;48.744;10.106;2022-09-16T04:24:32;19.40;;;11.63;;
1010;SDS011;494;48.744;10.106;2022-09-16T04:27:01;17.77;;;11.27;;
1010;SDS011;494;48.744;10.106;2022-09-16T04:29:30;23.17;;;11.70;;
1010;SDS011;494;48.744;10.106;2022-09-16T04:31:59;21.57;;;12.87;;
1010;SDS011;494;48.744;10.106;2022-09-16T04:34:27;18.27;;;11.47;;
1010;SDS011;494;48.744;10.106;2022-09-16T04:36:57;19.27;;;11.83;;
1010;SDS011;494;48.744;10.106;2022-09-16T04:39:26;22.63;;;11.97;;
1010;SDS011;494;48.744;10.106;2022-09-16T04:41:54;23.30;;;12.20;;
1010;SDS011;494;48.744;10.106;2022-09-16T04:44:24;22.50;;;12.60;;
1010;SDS011;494;48.744;10.106;2022-09-16T04:46:55;25.20;;;13.67;;
1010;SDS011;494;48.744;10.106;2022-09-16T04:49:23;23.00;;;13.10;;
1010;SDS011;494;48.744;10.106;2022-09-16T04:51:52;23.50;;;12.50;;
1010;SDS011;494;48.744;10.106;2022-09-16T04:54:20;21.93;;;11.57;;
1010;SDS011;494;48.744;10.106;2022-09-16T04:56:49;20.00;;;12.27;;
1010;SDS011;494;48.744;10.106;2022-09-16T04:59:17;19.70;;;12.00;;
1010;SDS011;494;48.744;10.106;2022-09-16T05:01:47;25.80;;;12.57;;
1010;SDS011;494;48.744;10.106;2022-09-16T05:04:16;21.57;;;12.47;;
1010;SDS011;494;48.744;10.106;2022-09-16T05:06:44;21.30;;;13.07;;
1010;SDS011;494;48.744;10.106;2022-09-16T05:09:13;23.50;;;13.20;;
1010;SDS011;494;48.744;10.106;2022-09-16T05:11:41;23.80;;;13.70;;
1010;SDS011;494;48.744;10.106;2022-09-16T05:14:11;21.37;;;12.57;;
1010;SDS011;494;48.744;10.106;2022-09-16T05:16:44;26.33;;;14.57;;
1010;SDS011;494;48.744;10.106;2022-09-16T05:19:14;25.63;;;13.50;;
1010;SDS011;494;48.744;10.106;2022-09-16T05:21:43;21.87;;;13.80;;
1010;SDS011;494;48.744;10.106;2022-09-16T05:24:12;24.00;;;14.47;;
1010;SDS011;494;48.744;10.106;2022-09-16T05:26:41;24.43;;;14.20;;
1010;SDS011;494;48.744;10.106;2022-09-16T05:29:11;22.77;;;14.07;;
1010;SDS011;494;48.744;10.106;2022-09-16T05:31:43;22.73;;;14.50;;
1010;SDS011;494;48.744;10.106;2022-09-16T05:34:15;24.37;;;14.10;;
1010;SDS011;494;48.744;10.106;2022-09-16T05:36:46;24.47;;;14.73;;
1010;SDS011;494;48.744;10.106;2022-09-16T05:39:19;27.10;;;14.77;;
1010;SDS011;494;48.744;10.106;2022-09-16T05:41:51;24.77;;;14.70;;
1010;SDS011;494;48.744;10.106;2022-09-16T05:44:22;25.60;;;15.23;;
1010;SDS011;494;48.744;10.106;2022-09-16T05:46:51;28.47;;;15.37;;
1010;SDS011;494;48.744;10.106;2022-09-16T05:49:22;23.67;;;15.07;;
1010;SDS011;494;48.744;10.106;2022-09-16T05:51:51;23.20;;;15.30;;
1010;SDS011;494;48.744;10.106;2022-09-16T05:54:20;26.20;;;14.47;;
1010;SDS011;494;48.744;10.106;2022-09-16T05:56:50;23.10;;;13.70;;
1010;SDS011;494;48.744;10.106;2022-09-16T05:59:19;22.60;;;12.70;;
1010;SDS011;494;48.744;10.106;2022-09-16T06:01:48;21.00;;;12.93;;
1010;SDS011;494;48.744;10.106;2022-09-16T06:04:17;21.70;;;13.00;;
1010;SDS011;494;48.744;10.106;2022-09-16T06:06:47;21.53;;;12.70;;
1010;SDS011;494;48.744;10.106;2022-09-16T06:09:16;23.97;;;12.30;;
1010;SDS011;494;48.744;10.106;2022-09-16T06:11:48;20.27;;;11.00;;
1010;SDS011;494;48.744;10.106;2022-09-16T06:14:26;24.20;;;12.23;;
1010;SDS011;494;48.744;10.106;2022-09-16T06:16:55;22.27;;;14.30;;
1010;SDS011;494;48.744;10.106;2022-09-16T06:19:24;21.27;;;13.30;;
1010;SDS011;494;48.744;10.106;2022-09-16T06:21:54;21.20;;;12.27;;
1010;SDS011;494;48.744;10.106;2022-09-16T06:24:23;21.37;;;11.93;;
1010;SDS011;494;48.744;10.106;2022-09-16T06:26:51;21.43;;;12.43;;
1010;SDS011;494;48.744;10.106;2022-09-16T06:29:20;24.37;;;14.10;;
1010;SDS011;494;48.744;10.106;2022-09-16T06:31:48;21.40;;;13.00;;
1010;SDS011;494;48.744;10.106;2022-09-16T06:34:17;24.13;;;14.10;;
1010;SDS011;494;48.744;10.106;2022-09-16T06:36:45;25.47;;;14.10;;
1010;SDS011;494;48.744;10.106;2022-09-16T06:39:15;22.80;;;13.47;;
1010;SDS011;494;48.744;10.106;2022-09-16T06:41:44;26.37;;;13.90;;
1010;SDS011;494;48.744;10.106;2022-09-16T06:44:12;23.23;;;13.53;;
1010;SDS011;494;48.744;10.106;2022-09-16T06:46:41;21.90;;;12.40;;
1010;SDS011;494;48.744;10.106;2022-09-16T06:49:09;24.47;;;13.13;;
1010;SDS011;494;48.744;10.106;2022-09-16T06:51:38;24.83;;;12.67;;
1010;SDS011;494;48.744;10.106;2022-09-16T06:54:07;21.13;;;12.87;;
1010;SDS011;494;48.744;10.106;2022-09-16T06:56:38;20.43;;;11.20;;
1010;SDS011;494;48.744;10.106;2022-09-16T06:59:07;21.90;;;10.97;;
1010;SDS011;494;48.744;10.106;2022-09-16T07:01:38;21.23;;;10.77;;
1010;SDS011;494;48.744;10.106;2022-09-16T07:04:08;19.27;;;10.37;;
1010;SDS011;494;48.744;10.106;2022-09-16T07:06:38;20.33;;;10.30;;
1010;SDS011;494;48.744;10.106;2022-09-16T07:09:27;17.50;;;9.40;;
1010;SDS011;494;48.744;10.106;2022-09-16T07:11:57;17.60;;;8.60;;
1010;SDS011;494;48.744;10.106;2022-09-16T07:14:26;17.97;;;9.83;;
1010;SDS011;494;48.744;10.106;2022-09-16T07:16:57;16.80;;;9.10;;
1010;SDS011;494;48.744;10.106;2022-09-16T07:19:27;15.30;;;9.07;;
1010;SDS011;494;48.744;10.106;2022-09-16T07:21:55;19.37;;;8.40;;
1010;SDS011;494;48.744;10.106;2022-09-16T07:24:25;18.10;;;7.47;;
1010;SDS011;494;48.744;10.106;2022-09-16T07:26:54;13.60;;;6.13;;
1010;SDS011;494;48.744;10.106;2022-09-16T07:29:24;16.30;;;7.70;;
1010;SDS011;494;48.744;10.106;2022-09-16T07:31:52;15.70;;;6.20;;
1010;SDS011;494;48.744;10.106;2022-09-16T07:34:21;13.60;;;6.27;;
1010;SDS011;494;48.744;10.106;2022-09-16T07:36:49;16.90;;;6.57;;
1010;SDS011;494;48.744;10.106;2022-09-16T07:39:18;15.40;;;6.50;;
1010;SDS011;494;48.744;10.106;2022-09-16T07:41:46;14.47;;;6.67;;
1010;SDS011;494;48.744;10.106;2022-09-16T07:44:16;13.70;;;6.33;;
1010;SDS011;494;48.744;10.106;2022-09-16T07:46:47;16.20;;;7.13;;
1010;SDS011;494;48.744;10.106;2022-09-16T07:49:16;15.90;;;6.70;;
1010;SDS011;494;48.744;10.106;2022-09-16T07:51:45;16.10;;;6.53;;
1010;SDS011;494;48.744;10.106;2022-09-16T07:54:15;14.17;;;6.90;;
1010;SDS011;494;48.744;10.106;2022-09-16T07:56:45;13.70;;;6.13;;
1010;SDS011;494;48.744;10.106;2022-09-16T07:59:14;13.93;;;6.93;;
1010;SDS011;494;48.744;10.106;2022-09-16T08:01:46;15.93;;;7.00;;
1010;SDS011;494;48.744;10.106;2022-09-16T08:04:17;13.87;;;6.73;;
1010;SDS011;494;48.744;10.106;2022-09-16T08:06:46;14.60;;;6.97;;
1010;SDS011;494;48.744;10.106;2022-09-16T08:09:15;17.20;;;8.37;;
1010;SDS011;494;48.744;10.106;2022-09-16T08:12:04;15.03;;;8.37;;
1010;SDS011;494;48.744;10.106;2022-09-16T08:14:36;19.90;;;8.63;;
1010;SDS011;494;48.744;10.106;2022-09-16T08:17:06;13.57;;;8.47;;
1010;SDS011;494;48.744;10.106;2022-09-16T08:19:34;15.57;;;8.43;;
1010;SDS011;494;48.744;10.106;2022-09-16T08:22:04;13.57;;;8.57;;
1010;SDS011;494;48.744;10.106;2022-09-16T08:24:33;17.67;;;8.90;;
1010;SDS011;494;48.744;10.106;2022-09-16T08:27:01;16.77;;;9.30;;
1010;SDS011;494;48.744;10.106;2022-09-16T08:29:30;18.13;;;9.53;;
1010;SDS011;494;48.744;10.106;2022-09-16T08:31:58;17.30;;;10.67;;
1010;SDS011;494;48.744;10.106;2022-09-16T08:34:28;20.20;;;10.13;;
1010;SDS011;494;48.744;10.106;2022-09-16T08:36:57;20.67;;;10.33;;
1010;SDS011;494;48.744;10.106;2022-09-16T08:39:25;15.37;;;8.70;;
1010;SDS011;494;48.744;10.106;2022-09-16T08:45:00;17.17;;;10.07;;
1010;SDS011;494;48.744;10.106;2022-09-16T08:47:52;16.40;;;9.77;;
1010;SDS011;494;48.744;10.106;2022-09-16T08:50:40;16.97;;;8.60;;
1010;SDS011;494;48.744;10.106;2022-09-16T08:53:14;15.73;;;8.70;;
1010;SDS011;494;48.744;10.106;2022-09-16T08:55:48;13.00;;;6.90;;
1010;SDS011;494;48.744;10.106;2022-09-16T08:58:18;16.00;;;8.50;;
1010;SDS011;494;48.744;10.106;2022-09-16T09:00:52;16.30;;;8.70;;
1010;SDS011;494;48.744;10.106;2022-09-16T09:03:29;13.30;;;7.60;;
1010;SDS011;494;48.744;10.106;2022-09-16T09:06:10;15.40;;;8.40;;
1010;SDS011;494;48.744;10.106;2022-09-16T09:09:00;14.10;;;9.17;;
1010;SDS011;494;48.744;10.106;2022-09-16T09:11:43;15.80;;;8.50;;
1010;SDS011;494;48.744;10.106;2022-09-16T09:14:22;13.90;;;8.37;;
1010;SDS011;494;48.744;10.106;2022-09-16T09:17:05;14.77;;;7.60;;
1010;SDS011;494;48.744;10.106;2022-09-16T09:19:49;16.53;;;8.00;;
1010;SDS011;494;48.744;10.106;2022-09-16T09:22:35;14.67;;;8.37;;
1010;SDS011;494;48.744;10.106;2022-09-16T09:25:25;14.40;;;7.30;;
1010;SDS011;494;48.744;10.106;2022-09-16T09:28:07;13.70;;;7.50;;
1010;SDS011;494;48.744;10.106;2022-09-16T09:30:55;12.70;;;7.40;;
1010;SDS011;494;48.744;10.106;2022-09-16T09:33:37;19.57;;;8.50;;
1010;SDS011;494;48.744;10.106;2022-09-16T09:39:27;14.53;;;7.40;;
1010;SDS011;494;48.744;10.106;2022-09-16T09:42:17;15.87;;;8.10;;
1010;SDS011;494;48.744;10.106;2022-09-16T09:44:52;16.23;;;8.60;;
1010;SDS011;494;48.744;10.106;2022-09-16T09:47:31;13.43;;;8.20;;
1010;SDS011;494;48.744;10.106;2022-09-16T09:50:09;14.87;;;8.10;;
1010;SDS011;494;48.744;10.106;2022-09-16T09:52:48;15.57;;;8.57;;
1010;SDS011;494;48.744;10.106;2022-09-16T09:55:30;15.07;;;8.33;;
1010;SDS011;494;48.744;10.106;2022-09-16T10:00:53;17.07;;;8.47;;
1010;SDS011;494;48.744;10.106;2022-09-16T10:03:23;15.33;;;8.07;;
1010;SDS011;494;48.744;10.106;2022-09-16T10:05:54;12.60;;;8.03;;
1010;SDS011;494;48.744;10.106;2022-09-16T10:08:23;13.50;;;7.73;;
1010;SDS011;494;48.744;10.106;2022-09-16T10:10:58;13.73;;;7.00;;
1010;SDS011;494;48.744;10.106;2022-09-16T10:13:29;13.27;;;7.17;;
1010;SDS011;494;48.744;10.106;2022-09-16T10:16:05;12.20;;;6.10;;
1010;SDS011;494;48.744;10.106;2022-09-16T10:18:39;14.60;;;6.87;;
1010;SDS011;494;48.744;10.106;2022-09-16T10:21:09;16.23;;;6.70;;
1010;SDS011;494;48.744;10.106;2022-09-16T10:23:51;13.00;;;7.07;;
1010;SDS011;494;48.744;10.106;2022-09-16T10:26:23;11.63;;;6.20;;
1010;SDS011;494;48.744;10.106;2022-09-16T10:28:54;12.33;;;6.50;;
1010;SDS011;494;48.744;10.106;2022-09-16T10:31:28;13.33;;;6.83;;
1010;SDS011;494;48.744;10.106;2022-09-16T10:34:03;15.67;;;7.50;;
1010;SDS011;494;48.744;10.106;2022-09-16T10:36:43;15.97;;;7.40;;
1010;SDS011;494;48.744;10.106;2022-09-16T10:39:20;13.33;;;7.50;;
1010;SDS011;494;48.744;10.106;2022-09-16T10:41:53;16.40;;;7.80;;
1010;SDS011;494;48.744;10.106;2022-09-16T10:44:22;15.50;;;7.00;;
1010;SDS011;494;48.744;10.106;2022-09-16T10:46:55;14.20;;;7.37;;
1010;SDS011;494;48.744;10.106;2022-09-16T10:49:34;14.63;;;7.23;;
1010;SDS011;494;48.744;10.106;2022-09-16T10:52:16;15.90;;;6.80;;
1010;SDS011;494;48.744;10.106;2022-09-16T10:54:47;14.50;;;7.30;;
1010;SDS011;494;48.744;10.106;2022-09-16T10:57:22;15.33;;;7.20;;
1010;SDS011;494;48.744;10.106;2022-09-16T11:00:02;17.63;;;7.40;;
1010;SDS011;494;48.744;10.106;2022-09-16T11:02:48;14.67;;;7.17;;
1010;SDS011;494;48.744;10.106;2022-09-16T11:05:41;16.53;;;7.30;;
1010;SDS011;494;48.744;10.106;2022-09-16T11:08:27;12.70;;;6.80;;
1010;SDS011;494;48.744;10.106;2022-09-16T11:11:13;16.00;;;7.37;;
1010;SDS011;494;48.744;10.106;2022-09-16T11:14:03;14.40;;;7.30;;
1010;SDS011;494;48.744;10.106;2022-09-16T11:16:49;16.33;;;8.10;;
1010;SDS011;494;48.744;10.106;2022-09-16T11:19:32;13.90;;;7.13;;
1010;SDS011;494;48.744;10.106;2022-09-16T11:22:28;14.27;;;7.10;;
1010;SDS011;494;48.744;10.106;2022-09-16T11:25:23;15.00;;;7.80;;
1010;SDS011;494;48.744;10.106;2022-09-16T11:28:07;18.20;;;8.40;;
1010;SDS011;494;48.744;10.106;2022-09-16T11:31:09;15.33;;;7.50;;
1010;SDS011;494;48.744;10.106;2022-09-16T11:33:54;14.53;;;7.40;;
1010;SDS011;494;48.744;10.106;2022-09-16T11:36:36;16.97;;;7.00;;
1010;SDS011;494;48.744;10.106;2022-09-16T11:39:24;13.60;;;7.83;;
1010;SDS011;494;48.744;10.106;2022-09-16T11:42:10;15.90;;;8.63;;
1010;SDS011;494;48.744;10.106;2022-09-16T11:44:54;15.80;;;8.10;;
1010;SDS011;494;48.744;10.106;2022-09-16T11:47:44;16.60;;;8.80;;
1010;SDS011;494;48.744;10.106;2022-09-16T11:50:33;14.60;;;8.10;;
1010;SDS011;494;48.744;10.106;2022-09-16T11:53:15;19.93;;;9.73;;
1010;SDS011;494;48.744;10.106;2022-09-16T11:56:16;17.33;;;9.10;;
1010;SDS011;494;48.744;10.106;2022-09-16T11:58:49;16.83;;;8.80;;
1010;SDS011;494;48.744;10.106;2022-09-16T12:01:25;18.23;;;9.70;;
1010;SDS011;494;48.744;10.106;2022-09-16T12:04:04;16.50;;;9.30;;
1010;SDS011;494;48.744;10.106;2022-09-16T12:06:49;16.60;;;8.97;;
1010;SDS011;494;48.744;10.106;2022-09-16T12:09:30;15.87;;;8.30;;
1010;SDS011;494;48.744;10.106;2022-09-16T12:12:08;13.93;;;8.33;;
1010;SDS011;494;48.744;10.106;2022-09-16T12:14:42;15.17;;;8.27;;
1010;SDS011;494;48.744;10.106;2022-09-16T12:17:19;17.53;;;8.43;;
1010;SDS011;494;48.744;10.106;2022-09-16T12:19:54;14.73;;;8.13;;
1010;SDS011;494;48.744;10.106;2022-09-16T12:22:30;14.87;;;8.47;;
1010;SDS011;494;48.744;10.106;2022-09-16T12:25:07;17.53;;;8.43;;
1010;SDS011;494;48.744;10.106;2022-09-16T12:27:43;15.40;;;8.73;;
1010;SDS011;494;48.744;10.106;2022-09-16T12:30:18;17.57;;;8.20;;
1010;SDS011;494;48.744;10.106;2022-09-16T12:32:53;15.67;;;7.93;;
1010;SDS011;494;48.744;10.106;2022-09-16T12:35:30;16.73;;;8.17;;
1010;SDS011;494;48.744;10.106;2022-09-16T12:38:04;18.30;;;8.20;;
1010;SDS011;494;48.744;10.106;2022-09-16T12:40:46;15.63;;;8.30;;
1010;SDS011;494;48.744;10.106;2022-09-16T12:43:43;18.97;;;8.70;;
1010;SDS011;494;48.744;10.106;2022-09-16T12:47:04;14.50;;;7.70;;
1010;SDS011;494;48.744;10.106;2022-09-16T12:56:39;16.00;;;7.80;;
1010;SDS011;494;48.744;10.106;2022-09-16T12:59:39;14.90;;;6.33;;
1010;SDS011;494;48.744;10.106;2022-09-16T13:02:33;15.00;;;7.17;;
1010;SDS011;494;48.744;10.106;2022-09-16T13:05:10;19.00;;;5.73;;
1010;SDS011;494;48.744;10.106;2022-09-16T13:07:51;14.90;;;6.70;;
1010;SDS011;494;48.744;10.106;2022-09-16T13:10:25;14.73;;;5.60;;
1010;SDS011;494;48.744;10.106;2022-09-16T13:13:19;12.37;;;4.97;;
1010;SDS011;494;48.744;10.106;2022-09-16T13:15:59;13.83;;;5.30;;
1010;SDS011;494;48.744;10.106;2022-09-16T13:18:37;12.00;;;4.40;;
1010;SDS011;494;48.744;10.106;2022-09-16T13:21:17;15.53;;;6.13;;
1010;SDS011;494;48.744;10.106;2022-09-16T13:23:56;12.70;;;6.73;;
1010;SDS011;494;48.744;10.106;2022-09-16T13:26:38;16.30;;;8.13;;
1010;SDS011;494;48.744;10.106;2022-09-16T13:29:26;13.07;;;5.00;;
1010;SDS011;494;48.744;10.106;2022-09-16T13:32:25;14.50;;;4.73;;
1010;SDS011;494;48.744;10.106;2022-09-16T13:35:04;12.77;;;4.80;;
1010;SDS011;494;48.744;10.106;2022-09-16T13:37:51;11.27;;;4.33;;
1010;SDS011;494;48.744;10.106;2022-09-16T13:40:23;12.00;;;4.23;;
1010;SDS011;494;48.744;10.106;2022-09-16T13:43:02;12.03;;;4.50;;
1010;SDS011;494;48.744;10.106;2022-09-16T13:45:40;11.13;;;4.30;;
1010;SDS011;494;48.744;10.106;2022-09-16T13:48:11;13.20;;;4.40;;
1010;SDS011;494;48.744;10.106;2022-09-16T13:50:45;11.83;;;3.80;;
1010;SDS011;494;48.744;10.106;2022-09-16T13:53:23;10.17;;;3.70;;
1010;SDS011;494;48.744;10.106;2022-09-16T13:55:59;11.50;;;4.03;;
1010;SDS011;494;48.744;10.106;2022-09-16T13:58:37;14.40;;;3.97;;
1010;SDS011;494;48.744;10.106;2022-09-16T14:01:21;12.50;;;3.50;;
1010;SDS011;494;48.744;10.106;2022-09-16T14:04:26;11.53;;;4.10;;
1010;SDS011;494;48.744;10.106;2022-09-16T14:07:13;14.27;;;3.90;;
1010;SDS011;494;48.744;10.106;2022-09-16T14:10:02;11.90;;;4.00;;
1010;SDS011;494;48.744;10.106;2022-09-16T14:12:45;13.00;;;4.97;;
1010;SDS011;494;48.744;10.106;2022-09-16T14:15:26;13.73;;;5.47;;
1010;SDS011;494;48.744;10.106;2022-09-16T14:18:00;12.43;;;4.40;;
1010;SDS011;494;48.744;10.106;2022-09-16T14:20:30;12.80;;;4.57;;
1010;SDS011;494;48.744;10.106;2022-09-16T14:23:01;11.20;;;3.93;;
1010;SDS011;494;48.744;10.106;2022-09-16T14:25:31;12.20;;;4.20;;
1010;SDS011;494;48.744;10.106;2022-09-16T14:28:12;16.10;;;3.70;;
1010;SDS011;494;48.744;10.106;2022-09-16T14:30:46;11.60;;;4.20;;
1010;SDS011;494;48.744;10.106;2022-09-16T14:33:18;14.47;;;5.60;;
1010;SDS011;494;48.744;10.106;2022-09-16T14:35:53;12.43;;;4.23;;
1010;SDS011;494;48.744;10.106;2022-09-16T14:38:31;12.60;;;3.43;;
1010;SDS011;494;48.744;10.106;2022-09-16T14:41:14;11.80;;;3.40;;
1010;SDS011;494;48.744;10.106;2022-09-16T14:43:53;16.33;;;4.77;;
1010;SDS011;494;48.744;10.106;2022-09-16T14:46:37;13.53;;;3.47;;
1010;SDS011;494;48.744;10.106;2022-09-16T14:49:09;13.80;;;5.10;;
1010;SDS011;494;48.744;10.106;2022-09-16T14:51:41;12.77;;;4.40;;
1010;SDS011;494;48.744;10.106;2022-09-16T14:54:14;15.90;;;4.90;;
1010;SDS011;494;48.744;10.106;2022-09-16T14:59:35;12.47;;;3.97;;
1010;SDS011;494;48.744;10.106;2022-09-16T15:02:10;12.73;;;4.67;;
1010;SDS011;494;48.744;10.106;2022-09-16T15:04:48;11.77;;;4.07;;
1010;SDS011;494;48.744;10.106;2022-09-16T15:07:22;12.77;;;4.40;;
1010;SDS011;494;48.744;10.106;2022-09-16T15:09:55;13.57;;;4.23;;
1010;SDS011;494;48.744;10.106;2022-09-16T15:12:29;13.77;;;4.53;;
1010;SDS011;494;48.744;10.106;2022-09-16T15:15:03;12.80;;;4.60;;
1010;SDS011;494;48.744;10.106;2022-09-16T15:17:43;11.60;;;4.47;;
1010;SDS011;494;48.744;10.106;2022-09-16T15:20:25;12.97;;;3.90;;
1010;SDS011;494;48.744;10.106;2022-09-16T15:22:56;13.20;;;5.40;;
1010;SDS011;494;48.744;10.106;2022-09-16T15:25:28;14.67;;;5.87;;
1010;SDS011;494;48.744;10.106;2022-09-16T15:28:04;12.90;;;7.10;;
1010;SDS011;494;48.744;10.106;2022-09-16T15:30:42;17.47;;;7.40;;
1010;SDS011;494;48.744;10.106;2022-09-16T15:33:22;14.57;;;8.23;;
1010;SDS011;494;48.744;10.106;2022-09-16T15:36:00;16.33;;;8.70;;
1010;SDS011;494;48.744;10.106;2022-09-16T15:38:30;13.70;;;8.80;;
1010;SDS011;494;48.744;10.106;2022-09-16T15:41:02;15.60;;;7.70;;
1010;SDS011;494;48.744;10.106;2022-09-16T15:43:33;16.63;;;9.20;;
1010;SDS011;494;48.744;10.106;2022-09-16T15:46:11;14.20;;;6.43;;
1010;SDS011;494;48.744;10.106;2022-09-16T15:48:47;13.67;;;6.53;;
1010;SDS011;494;48.744;10.106;2022-09-16T15:51:23;14.00;;;7.90;;
1010;SDS011;494;48.744;10.106;2022-09-16T15:54:00;13.50;;;8.03;;
1010;SDS011;494;48.744;10.106;2022-09-16T15:56:48;15.83;;;8.20;;
1010;SDS011;494;48.744;10.106;2022-09-16T15:59:28;13.80;;;7.93;;
1010;SDS011;494;48.744;10.106;2022-09-16T16:02:05;13.50;;;8.20;;
1010;SDS011;494;48.744;10.106;2022-09-16T16:04:51;13.10;;;8.00;;
1010;SDS011;494;48.744;10.106;2022-09-16T16:10:10;13.40;;;7.90;;
1010;SDS011;494;48.744;10.106;2022-09-16T16:12:47;15.67;;;7.97;;
1010;SDS011;494;48.744;10.106;2022-09-16T16:15:18;13.33;;;8.33;;
1010;SDS011;494;48.744;10.106;2022-09-16T16:17:52;14.80;;;8.93;;